Dumont, Iowa
Current Conditions -  °F | °C
As of 2:55 PM on Tuesday 25 Nov 2014 (Local Time) from KIFA Reporting Station
Clear Clear  
Wind Chill: 25°   Ceiling: Unl
Heat Index: 30°   Visibility: 10mi
Dew Point: 15°   Wind: 5mph
Humidity: 53%   Direction: 200°SSW
Pressure: 30.07"   Gusts: NA
Location:  42.75°N, 92.98°W
Report Text: KIFA 252055Z AUTO 20004KT 10SM CLR M01/M10 A3007 RMK AO2 T10101096
Loading
Personal Weather Stations






























Interactive Weather Map New forecast layout! Learn more

10-Day Weather Forecast

Advertisements
Track Severe Weather on mobile